createdAt,value
2023-05-14T00:00:42.875Z,13.81
2023-05-14T00:02:45.986Z,13.79
2023-05-14T00:04:49.185Z,13.76
2023-05-14T00:06:51.256Z,13.71
2023-05-14T00:08:54.293Z,13.68
2023-05-14T00:10:57.301Z,13.65
2023-05-14T00:13:00.407Z,13.64
2023-05-14T00:15:05.584Z,13.62
2023-05-14T00:17:08.555Z,13.61
2023-05-14T00:19:11.631Z,13.59
2023-05-14T00:21:14.696Z,13.56
2023-05-14T00:23:17.702Z,13.54
2023-05-14T00:25:20.802Z,13.52
2023-05-14T00:27:23.817Z,13.50
2023-05-14T00:29:26.891Z,13.47
2023-05-14T00:31:31.334Z,13.45
2023-05-14T00:33:35.131Z,13.44
2023-05-14T00:35:38.428Z,13.40
2023-05-14T00:37:42.310Z,13.37
2023-05-14T00:39:45.539Z,13.35
2023-05-14T00:41:48.592Z,13.31
2023-05-14T00:43:51.577Z,13.29
2023-05-14T00:45:55.673Z,13.26
2023-05-14T00:48:00.113Z,13.19
2023-05-14T00:50:04.068Z,13.12
2023-05-14T00:52:07.435Z,13.07
2023-05-14T00:54:10.617Z,13.04
2023-05-14T00:56:14.093Z,13.02
2023-05-14T00:58:17.157Z,12.98
2023-05-14T01:00:21.214Z,12.95
2023-05-14T01:02:24.766Z,12.91
2023-05-14T01:04:29.608Z,12.88
2023-05-14T01:06:39.740Z,12.86
2023-05-14T01:08:59.616Z,12.84
2023-05-14T01:11:07.905Z,12.81
2023-05-14T01:13:15.349Z,12.76
2023-05-14T01:15:24.238Z,12.73
2023-05-14T01:17:30.372Z,12.71
2023-05-14T01:19:39.148Z,12.68
2023-05-14T01:21:45.652Z,12.65
2023-05-14T01:23:49.393Z,12.59
2023-05-14T01:25:53.118Z,12.52
2023-05-14T01:28:02.401Z,12.45
2023-05-14T01:30:12.755Z,12.44
2023-05-14T01:32:17.415Z,12.42
2023-05-14T01:34:22.696Z,12.42
2023-05-14T01:36:26.575Z,12.40
2023-05-14T01:38:34.069Z,12.35
2023-05-14T01:40:38.416Z,12.31
2023-05-14T01:42:42.421Z,12.28
2023-05-14T01:44:46.165Z,12.23
2023-05-14T01:46:49.901Z,12.16
2023-05-14T01:48:53.342Z,12.11
2023-05-14T01:50:57.142Z,12.04
2023-05-14T01:53:00.768Z,12.00
2023-05-14T01:55:07.164Z,11.90
2023-05-14T01:57:10.737Z,11.81
2023-05-14T01:59:14.280Z,11.78
2023-05-14T02:01:17.939Z,11.78
2023-05-14T02:03:21.684Z,11.77
2023-05-14T02:05:25.464Z,11.77
2023-05-14T02:07:30.996Z,11.78
2023-05-14T02:09:34.850Z,11.79
2023-05-14T02:11:40.040Z,11.76
2023-05-14T02:13:43.559Z,11.76
2023-05-14T02:15:47.292Z,11.81
2023-05-14T02:17:50.995Z,11.83
2023-05-14T02:19:54.546Z,11.84
2023-05-14T02:21:58.095Z,11.88
2023-05-14T02:24:01.485Z,11.91
2023-05-14T02:26:05.433Z,11.89
2023-05-14T02:28:10.448Z,11.81
2023-05-14T02:30:15.228Z,11.76
2023-05-14T02:32:19.024Z,11.77
2023-05-14T02:34:22.487Z,11.73
2023-05-14T02:36:27.455Z,11.74
2023-05-14T02:38:31.187Z,11.75
2023-05-14T02:40:34.766Z,11.76
2023-05-14T02:42:38.469Z,11.79
2023-05-14T02:44:43.479Z,11.82
2023-05-14T02:46:47.900Z,11.83
2023-05-14T02:48:51.537Z,11.84
2023-05-14T02:50:55.742Z,11.86
2023-05-14T02:52:59.283Z,11.90
2023-05-14T02:55:03.335Z,11.92
2023-05-14T02:57:06.978Z,11.97
2023-05-14T02:59:09.974Z,12.00
2023-05-14T03:01:15.118Z,12.05
2023-05-14T03:03:20.159Z,12.07
2023-05-14T03:05:23.847Z,12.11
2023-05-14T03:07:26.848Z,12.13
2023-05-14T03:09:29.847Z,12.15
2023-05-14T03:11:32.885Z,12.17
2023-05-14T03:13:35.921Z,12.17
2023-05-14T03:15:38.949Z,12.14
2023-05-14T03:17:43.591Z,12.14
2023-05-14T03:19:46.629Z,12.16
2023-05-14T03:21:50.112Z,12.15
2023-05-14T03:23:53.654Z,12.17
2023-05-14T03:25:56.681Z,12.16
2023-05-14T03:28:00.905Z,12.16
2023-05-14T03:30:04.491Z,12.14
2023-05-14T03:32:08.081Z,12.14
2023-05-14T03:34:12.557Z,12.15
2023-05-14T03:36:15.654Z,12.19
2023-05-14T03:38:18.668Z,12.18
2023-05-14T03:40:23.269Z,12.21
2023-05-14T03:42:27.098Z,12.23
2023-05-14T03:44:30.264Z,12.25
2023-05-14T03:46:33.435Z,12.26
2023-05-14T03:48:36.557Z,12.24
2023-05-14T03:50:42.616Z,12.25
2023-05-14T03:52:46.007Z,12.27
2023-05-14T03:54:49.043Z,12.29
2023-05-14T03:56:52.065Z,12.29
2023-05-14T03:58:55.042Z,12.29
2023-05-14T04:00:58.265Z,12.26
2023-05-14T04:03:02.151Z,12.23
2023-05-14T04:05:05.630Z,12.25
2023-05-14T04:07:10.206Z,12.27
2023-05-14T04:09:13.236Z,12.28
2023-05-14T04:11:16.373Z,12.29
2023-05-14T04:13:19.523Z,12.31
2023-05-14T04:15:22.709Z,12.32
2023-05-14T04:17:25.949Z,12.33
2023-05-14T04:19:29.116Z,12.32
2023-05-14T04:21:33.404Z,12.35
2023-05-14T04:23:37.760Z,12.36
2023-05-14T04:25:40.939Z,12.33
2023-05-14T04:27:44.008Z,12.34
2023-05-14T04:29:47.058Z,12.34
2023-05-14T04:31:50.674Z,12.37
2023-05-14T04:33:53.865Z,12.39
2023-05-14T04:35:56.962Z,12.42
2023-05-14T04:38:01.277Z,12.45
2023-05-14T04:40:06.689Z,12.46
2023-05-14T04:42:09.743Z,12.50
2023-05-14T04:44:13.801Z,12.52
2023-05-14T04:46:16.922Z,12.54
2023-05-14T04:48:20.033Z,12.55
2023-05-14T04:50:23.459Z,12.57
2023-05-14T04:52:26.861Z,12.58
2023-05-14T04:54:30.090Z,12.61
2023-05-14T04:56:34.520Z,12.64
2023-05-14T04:58:37.539Z,12.67
2023-05-14T05:00:41.129Z,12.69
2023-05-14T05:02:44.413Z,12.73
2023-05-14T05:04:47.518Z,12.78
2023-05-14T05:06:50.726Z,12.81
2023-05-14T05:08:53.771Z,12.84
2023-05-14T05:10:56.747Z,12.88
2023-05-14T05:13:01.394Z,12.90
2023-05-14T05:15:04.589Z,12.92
2023-05-14T05:17:09.424Z,12.96
2023-05-14T05:19:12.673Z,13.02
2023-05-14T05:21:15.826Z,13.04
2023-05-14T05:23:18.940Z,13.06
2023-05-14T05:25:22.130Z,13.06
2023-05-14T05:27:25.121Z,13.08
2023-05-14T05:29:29.733Z,13.10
2023-05-14T05:31:33.064Z,13.11
2023-05-14T05:33:36.453Z,13.14
2023-05-14T05:35:39.567Z,13.16
2023-05-14T05:37:45.182Z,13.19
2023-05-14T05:39:48.410Z,13.23
2023-05-14T05:41:55.129Z,13.28
2023-05-14T05:43:58.098Z,13.32
2023-05-14T05:46:02.994Z,13.40
2023-05-14T05:48:06.628Z,13.50
2023-05-14T05:50:10.843Z,13.58
2023-05-14T05:52:13.954Z,13.67
2023-05-14T05:54:19.801Z,13.76
2023-05-14T05:56:22.890Z,13.80
2023-05-14T05:58:26.277Z,13.83
2023-05-14T06:00:29.282Z,13.84
2023-05-14T06:02:33.961Z,13.87
2023-05-14T06:04:36.982Z,13.91
2023-05-14T06:06:40.166Z,13.95
2023-05-14T06:08:43.200Z,14.00
2023-05-14T06:10:47.532Z,14.03
2023-05-14T06:12:50.953Z,14.10
2023-05-14T06:14:55.427Z,14.16
2023-05-14T06:16:58.737Z,14.22
2023-05-14T06:19:03.365Z,14.29
2023-05-14T06:21:06.733Z,14.36
2023-05-14T06:23:11.267Z,14.42
2023-05-14T06:25:14.307Z,14.40
2023-05-14T06:27:17.539Z,14.40
2023-05-14T06:29:20.582Z,14.44
2023-05-14T06:31:23.624Z,14.51
2023-05-14T06:33:30.871Z,14.51
2023-05-14T06:35:35.603Z,14.52
2023-05-14T06:37:38.696Z,14.58
2023-05-14T06:39:46.719Z,14.59
2023-05-14T06:41:50.349Z,14.60
2023-05-14T06:43:53.371Z,14.60
2023-05-14T06:45:56.416Z,14.65
2023-05-14T06:47:59.539Z,14.72
2023-05-14T06:50:02.866Z,14.80
2023-05-14T06:52:08.122Z,14.93
2023-05-14T06:54:11.174Z,15.08
2023-05-14T06:56:14.737Z,15.21
2023-05-14T06:58:17.824Z,15.31
2023-05-14T07:00:22.203Z,15.43
2023-05-14T07:02:25.642Z,15.47
2023-05-14T07:04:28.792Z,15.51
2023-05-14T07:06:32.499Z,15.55
2023-05-14T07:08:37.174Z,15.61
2023-05-14T07:10:40.749Z,15.73
2023-05-14T07:12:44.195Z,15.90
2023-05-14T07:14:47.223Z,16.05
2023-05-14T07:16:50.358Z,16.14
2023-05-14T07:18:53.640Z,16.27
2023-05-14T07:20:56.803Z,16.36
2023-05-14T07:23:00.005Z,16.43
2023-05-14T07:25:04.543Z,16.56
2023-05-14T07:27:08.633Z,16.90
2023-05-14T07:29:11.780Z,17.03
2023-05-14T07:31:14.978Z,17.06
2023-05-14T07:33:18.109Z,17.06
2023-05-14T07:35:21.212Z,17.12
2023-05-14T07:37:26.000Z,17.21
2023-05-14T07:39:29.096Z,17.53
2023-05-14T07:41:33.658Z,17.83
2023-05-14T07:43:38.475Z,18.11
2023-05-14T07:45:41.820Z,18.12
2023-05-14T07:47:44.988Z,18.14
2023-05-14T07:49:48.182Z,18.39
2023-05-14T07:51:51.299Z,18.56
2023-05-14T07:53:55.426Z,18.38
2023-05-14T07:55:59.982Z,18.31
2023-05-14T07:58:04.525Z,18.30
2023-05-14T08:00:09.189Z,18.32
2023-05-14T08:02:18.445Z,18.38
2023-05-14T08:04:23.474Z,18.46
2023-05-14T08:06:27.575Z,18.61
2023-05-14T08:08:30.913Z,18.73
2023-05-14T08:10:34.234Z,18.78
2023-05-14T08:12:37.474Z,18.79
2023-05-14T08:14:42.092Z,19.01
2023-05-14T08:16:45.227Z,19.34
2023-05-14T08:18:48.499Z,19.70
2023-05-14T08:20:51.734Z,19.95
2023-05-14T08:22:54.713Z,20.28
2023-05-14T08:24:57.900Z,20.62
2023-05-14T08:27:01.047Z,20.26
2023-05-14T08:29:04.214Z,20.21
2023-05-14T08:31:08.688Z,19.92
2023-05-14T08:33:12.026Z,19.78
2023-05-14T08:35:15.182Z,19.80
2023-05-14T08:37:18.259Z,19.85
2023-05-14T08:39:21.335Z,19.62
2023-05-14T08:41:24.645Z,19.46
2023-05-14T08:43:29.504Z,19.40
2023-05-14T08:45:34.165Z,19.34
2023-05-14T08:47:38.916Z,19.31
2023-05-14T08:49:44.499Z,19.24
2023-05-14T08:51:48.586Z,19.13
2023-05-14T08:53:51.747Z,19.01
2023-05-14T08:55:55.027Z,18.90
2023-05-14T08:57:58.133Z,18.73
2023-05-14T09:00:01.769Z,18.73
2023-05-14T09:02:06.968Z,18.72
2023-05-14T09:04:12.810Z,18.72
2023-05-14T09:06:16.892Z,18.70
2023-05-14T09:08:20.820Z,18.70
2023-05-14T09:10:24.333Z,18.68
2023-05-14T09:12:27.979Z,18.68
2023-05-14T09:14:31.140Z,18.66
2023-05-14T09:16:34.397Z,18.64
2023-05-14T09:18:37.930Z,18.72
2023-05-14T09:20:42.537Z,18.76
2023-05-14T09:22:45.747Z,18.78
2023-05-14T09:25:03.906Z,18.84
2023-05-14T09:27:07.522Z,18.91
2023-05-14T09:29:11.033Z,18.99
2023-05-14T09:31:14.290Z,18.94
2023-05-14T09:33:27.259Z,18.93
2023-05-14T09:35:30.440Z,18.74
2023-05-14T09:37:37.444Z,18.60
2023-05-14T09:39:41.284Z,18.54
2023-05-14T09:41:44.356Z,18.43
2023-05-14T09:43:47.475Z,18.26
2023-05-14T09:45:50.587Z,18.29
2023-05-14T09:47:53.818Z,18.27
2023-05-14T09:49:56.918Z,18.23
2023-05-14T09:51:59.999Z,18.23
2023-05-14T09:54:05.729Z,18.17
2023-05-14T09:56:09.029Z,18.15
2023-05-14T09:58:14.406Z,18.16
2023-05-14T10:00:18.132Z,18.08
2023-05-14T10:02:24.179Z,18.07
2023-05-14T10:04:27.454Z,18.12
2023-05-14T10:06:34.824Z,18.13
2023-05-14T10:08:42.931Z,18.12
2023-05-14T10:10:47.584Z,18.15
2023-05-14T10:12:54.235Z,18.22
2023-05-14T10:14:59.265Z,18.23
2023-05-14T10:17:03.086Z,18.20
2023-05-14T10:19:09.163Z,18.20
2023-05-14T10:21:12.769Z,18.28
2023-05-14T10:23:16.088Z,18.29
2023-05-14T10:25:19.474Z,18.29
2023-05-14T10:27:24.622Z,18.37
2023-05-14T10:29:33.678Z,18.43
2023-05-14T10:31:51.696Z,18.52
2023-05-14T10:33:55.215Z,18.59
2023-05-14T10:36:01.094Z,18.65
2023-05-14T10:38:09.281Z,18.67
2023-05-14T10:40:13.670Z,18.66
2023-05-14T10:42:19.157Z,18.63
2023-05-14T10:44:23.734Z,18.64
2023-05-14T10:46:26.983Z,18.62
2023-05-14T10:48:30.127Z,18.58
2023-05-14T10:50:33.241Z,18.61
2023-05-14T10:52:36.635Z,18.59
2023-05-14T10:54:39.868Z,18.57
2023-05-14T10:56:45.116Z,18.57
2023-05-14T10:58:51.444Z,18.60
2023-05-14T11:00:57.142Z,18.65
2023-05-14T11:03:01.654Z,18.71
2023-05-14T11:05:08.198Z,18.74
2023-05-14T11:07:11.503Z,18.71
2023-05-14T11:09:18.384Z,18.72
2023-05-14T11:11:21.994Z,18.74
2023-05-14T11:13:27.393Z,18.81
2023-05-14T11:15:30.493Z,18.79
2023-05-14T11:17:36.849Z,18.79
2023-05-14T11:19:39.959Z,18.76
2023-05-14T11:21:43.160Z,18.69
2023-05-14T11:23:47.944Z,18.61
2023-05-14T11:25:51.157Z,18.29
2023-05-14T11:27:58.229Z,18.00
2023-05-14T11:30:02.105Z,18.14
2023-05-14T11:32:06.874Z,18.43
2023-05-14T11:34:11.415Z,18.65
2023-05-14T11:36:14.748Z,18.72
2023-05-14T11:38:18.496Z,18.77
2023-05-14T11:40:22.166Z,18.88
2023-05-14T11:42:25.825Z,18.91
2023-05-14T11:44:29.041Z,18.89
2023-05-14T11:46:32.161Z,18.93
2023-05-14T11:48:35.223Z,19.07
2023-05-14T11:50:40.485Z,19.24
2023-05-14T11:52:43.691Z,19.30
2023-05-14T11:54:47.015Z,19.21
2023-05-14T11:56:51.548Z,19.16
2023-05-14T11:58:57.495Z,19.10
2023-05-14T12:01:00.724Z,19.20
2023-05-14T12:03:03.820Z,19.30
2023-05-14T12:05:09.072Z,19.35
2023-05-14T12:07:14.846Z,19.53
2023-05-14T12:09:18.992Z,19.56
2023-05-14T12:11:22.381Z,19.56
2023-05-14T12:13:27.215Z,19.58
2023-05-14T12:15:30.426Z,19.50
2023-05-14T12:17:33.943Z,19.60
2023-05-14T12:19:41.880Z,19.42
2023-05-14T12:21:45.816Z,19.41
2023-05-14T12:23:58.542Z,19.65
2023-05-14T12:26:09.137Z,19.85
2023-05-14T12:28:15.731Z,19.90
2023-05-14T12:30:21.847Z,19.95
2023-05-14T12:32:41.294Z,20.04
2023-05-14T12:34:44.562Z,19.91
2023-05-14T12:36:47.586Z,19.88
2023-05-14T12:38:52.217Z,19.82
2023-05-14T12:40:55.210Z,19.81
2023-05-14T12:42:58.297Z,19.76
2023-05-14T12:45:05.511Z,19.81
2023-05-14T12:47:09.533Z,19.92
2023-05-14T12:49:12.679Z,19.83
2023-05-14T12:51:15.745Z,19.85
2023-05-14T12:53:18.751Z,19.83
2023-05-14T12:55:23.283Z,19.85
2023-05-14T12:57:27.777Z,19.75
2023-05-14T12:59:31.028Z,19.78
2023-05-14T13:01:34.140Z,19.92
2023-05-14T13:03:37.379Z,19.73
2023-05-14T13:05:40.655Z,19.68
2023-05-14T13:07:44.001Z,19.66
2023-05-14T13:09:47.164Z,19.49
2023-05-14T13:11:51.579Z,19.44
2023-05-14T13:13:56.376Z,19.57
2023-05-14T13:15:59.418Z,19.66
2023-05-14T13:18:02.532Z,19.81
2023-05-14T13:20:06.436Z,19.86
2023-05-14T13:22:09.589Z,19.85
2023-05-14T13:24:13.108Z,19.61
2023-05-14T13:26:16.662Z,19.37
2023-05-14T13:28:21.303Z,19.34
2023-05-14T13:30:24.440Z,19.32
2023-05-14T13:32:27.585Z,19.28
2023-05-14T13:34:30.719Z,19.08
2023-05-14T13:36:33.887Z,19.04
2023-05-14T13:38:37.049Z,18.92
2023-05-14T13:40:42.590Z,18.95
2023-05-14T13:42:45.726Z,18.91
2023-05-14T13:44:50.306Z,18.82
2023-05-14T13:46:53.680Z,19.01
2023-05-14T13:48:56.949Z,18.89
2023-05-14T13:51:00.422Z,18.68
2023-05-14T13:53:03.546Z,18.59
2023-05-14T13:55:07.872Z,18.56
2023-05-14T13:57:10.997Z,18.51
2023-05-14T13:59:14.088Z,18.61
2023-05-14T14:01:18.563Z,18.66
2023-05-14T14:03:21.841Z,18.73
2023-05-14T14:05:28.409Z,18.72
2023-05-14T14:07:31.628Z,18.63
2023-05-14T14:09:36.818Z,18.73
2023-05-14T14:11:40.121Z,18.63
2023-05-14T14:13:45.110Z,18.52
2023-05-14T14:15:50.048Z,18.59
2023-05-14T14:17:54.818Z,18.32
2023-05-14T14:19:57.949Z,18.17
2023-05-14T14:22:01.077Z,18.15
2023-05-14T14:24:04.342Z,18.19
2023-05-14T14:26:07.623Z,18.26
2023-05-14T14:28:10.774Z,18.41
2023-05-14T14:30:16.552Z,18.54
2023-05-14T14:32:20.233Z,18.66
2023-05-14T14:34:24.844Z,18.77
2023-05-14T14:36:28.926Z,18.85
2023-05-14T14:38:32.011Z,18.94
2023-05-14T14:40:35.342Z,19.10
2023-05-14T14:42:38.810Z,19.08
2023-05-14T14:44:42.299Z,19.03
2023-05-14T14:46:45.381Z,19.11
2023-05-14T14:48:48.433Z,19.09
2023-05-14T14:50:53.219Z,19.07
2023-05-14T14:52:56.228Z,19.02
2023-05-14T14:54:59.299Z,18.90
2023-05-14T14:57:02.320Z,18.83
2023-05-14T14:59:05.468Z,18.92
2023-05-14T15:01:08.667Z,19.01
2023-05-14T15:03:11.998Z,19.10
2023-05-14T15:05:16.533Z,19.06
2023-05-14T15:07:22.148Z,19.10
2023-05-14T15:09:25.191Z,19.11
2023-05-14T15:11:28.884Z,19.16
2023-05-14T15:13:32.055Z,19.11
2023-05-14T15:15:35.522Z,19.00
2023-05-14T15:17:38.669Z,18.88
2023-05-14T15:19:41.773Z,18.94
2023-05-14T15:21:44.939Z,18.89
2023-05-14T15:23:49.420Z,18.94
2023-05-14T15:25:52.584Z,18.97
2023-05-14T15:27:55.950Z,18.97
2023-05-14T15:29:58.965Z,18.90
2023-05-14T15:32:02.114Z,18.81
2023-05-14T15:34:05.327Z,18.80
2023-05-14T15:36:08.803Z,18.79
2023-05-14T15:38:12.057Z,18.76
2023-05-14T15:40:16.531Z,18.74
2023-05-14T15:42:20.799Z,18.82
2023-05-14T15:44:23.942Z,18.92
2023-05-14T15:46:27.319Z,18.79
2023-05-14T15:48:30.571Z,18.69
2023-05-14T15:50:33.724Z,18.68
2023-05-14T15:52:36.977Z,18.56
2023-05-14T15:54:40.057Z,18.58
2023-05-14T15:56:44.483Z,18.59
2023-05-14T15:58:47.612Z,18.56
2023-05-14T16:00:50.658Z,18.48
2023-05-14T16:02:53.764Z,18.41
2023-05-14T16:04:57.065Z,18.39
2023-05-14T16:07:02.974Z,18.44
2023-05-14T16:09:06.119Z,18.47
2023-05-14T16:11:09.353Z,18.46
2023-05-14T16:13:13.771Z,18.45
2023-05-14T16:15:16.995Z,18.48
2023-05-14T16:17:20.076Z,18.58
2023-05-14T16:19:23.151Z,18.67
2023-05-14T16:21:26.390Z,18.67
2023-05-14T16:23:29.606Z,18.65
2023-05-14T16:25:32.734Z,18.71
2023-05-14T16:27:35.900Z,18.72
2023-05-14T16:29:40.431Z,18.76
2023-05-14T16:31:43.553Z,18.76
2023-05-14T16:33:46.855Z,18.75
2023-05-14T16:35:51.124Z,18.73
2023-05-14T16:37:54.398Z,18.68
2023-05-14T16:39:57.560Z,18.73
2023-05-14T16:42:00.649Z,18.76
2023-05-14T16:44:03.717Z,18.77
2023-05-14T16:46:08.429Z,18.76
2023-05-14T16:48:11.702Z,18.75
2023-05-14T16:50:14.787Z,18.73
2023-05-14T16:52:17.812Z,18.72
2023-05-14T16:54:21.060Z,18.73
2023-05-14T16:56:24.119Z,18.60
2023-05-14T16:58:27.217Z,18.59
2023-05-14T17:00:30.707Z,18.56
2023-05-14T17:02:35.158Z,18.50
2023-05-14T17:04:41.921Z,18.48
2023-05-14T17:06:45.193Z,18.47
2023-05-14T17:08:48.240Z,18.49
2023-05-14T17:10:51.716Z,18.56
2023-05-14T17:12:54.810Z,18.61
2023-05-14T17:14:57.904Z,18.64
2023-05-14T17:17:00.978Z,18.67
2023-05-14T17:19:05.757Z,18.72
2023-05-14T17:21:08.932Z,18.71
2023-05-14T17:23:11.990Z,18.73
2023-05-14T17:25:15.066Z,18.68
2023-05-14T17:27:18.146Z,18.63
2023-05-14T17:29:21.195Z,18.66
2023-05-14T17:31:24.332Z,18.66
2023-05-14T17:33:27.411Z,18.69
2023-05-14T17:35:35.806Z,18.72
2023-05-14T17:37:38.884Z,18.73
2023-05-14T17:39:41.923Z,18.69
2023-05-14T17:41:45.260Z,18.61
2023-05-14T17:43:48.222Z,18.55
2023-05-14T17:45:54.379Z,18.51
2023-05-14T17:47:58.026Z,18.48
2023-05-14T17:50:01.299Z,18.41
2023-05-14T17:52:06.259Z,18.43
2023-05-14T17:54:09.416Z,18.37
2023-05-14T17:56:12.550Z,18.30
2023-05-14T17:58:16.287Z,18.28
2023-05-14T18:00:19.870Z,18.29
2023-05-14T18:02:23.066Z,18.28
2023-05-14T18:04:26.468Z,18.19
2023-05-14T18:06:29.847Z,18.14
2023-05-14T18:08:34.370Z,18.15
2023-05-14T18:10:37.573Z,18.15
2023-05-14T18:12:40.834Z,18.11
2023-05-14T18:14:45.579Z,18.11
2023-05-14T18:16:49.009Z,18.09
2023-05-14T18:18:52.203Z,18.08
2023-05-14T18:20:55.231Z,18.05
2023-05-14T18:22:58.304Z,18.04
2023-05-14T18:25:02.833Z,18.02
2023-05-14T18:27:06.254Z,18.02
2023-05-14T18:29:09.424Z,18.00
2023-05-14T18:31:12.640Z,17.97
2023-05-14T18:33:15.891Z,17.96
2023-05-14T18:35:19.115Z,17.92
2023-05-14T18:37:22.250Z,17.88
2023-05-14T18:39:25.635Z,17.83
2023-05-14T18:41:30.203Z,17.82
2023-05-14T18:43:33.375Z,17.79
2023-05-14T18:45:36.540Z,17.73
2023-05-14T18:47:40.447Z,17.69
2023-05-14T18:49:43.593Z,17.60
2023-05-14T18:51:46.807Z,17.55
2023-05-14T18:53:49.892Z,17.49
2023-05-14T18:55:52.965Z,17.44
2023-05-14T18:57:57.935Z,17.38
2023-05-14T19:00:02.085Z,17.33
2023-05-14T19:02:06.171Z,17.26
2023-05-14T19:04:09.535Z,17.20
2023-05-14T19:06:12.888Z,17.14
2023-05-14T19:08:17.311Z,17.09
2023-05-14T19:10:20.522Z,17.04
2023-05-14T19:12:23.939Z,16.98
2023-05-14T19:14:28.415Z,16.95
2023-05-14T19:16:32.630Z,16.88
2023-05-14T19:18:36.082Z,16.81
2023-05-14T19:20:39.278Z,16.74
2023-05-14T19:22:42.404Z,16.67
2023-05-14T19:24:45.546Z,16.61
2023-05-14T19:26:48.891Z,16.53
2023-05-14T19:28:52.734Z,16.46
2023-05-14T19:30:57.366Z,16.39
2023-05-14T19:33:00.779Z,16.35
2023-05-14T19:35:03.944Z,16.28
2023-05-14T19:37:07.285Z,16.23
2023-05-14T19:39:10.978Z,16.18
2023-05-14T19:41:14.067Z,16.12
2023-05-14T19:43:17.154Z,16.06
2023-05-14T19:45:20.227Z,15.98
2023-05-14T19:47:28.538Z,15.91
2023-05-14T19:49:31.734Z,15.87
2023-05-14T19:51:34.937Z,15.80
2023-05-14T19:53:38.061Z,15.75
2023-05-14T19:55:41.723Z,15.69
2023-05-14T19:57:44.900Z,15.63
2023-05-14T19:59:48.027Z,15.59
2023-05-14T20:01:51.196Z,15.57
2023-05-14T20:03:55.862Z,15.54
2023-05-14T20:05:59.066Z,15.49
2023-05-14T20:08:04.004Z,15.47
2023-05-14T20:10:08.156Z,15.45
2023-05-14T20:12:12.921Z,15.40
2023-05-14T20:14:16.277Z,15.35
2023-05-14T20:16:19.604Z,15.31
2023-05-14T20:18:23.188Z,15.26
2023-05-14T20:20:29.663Z,15.20
2023-05-14T20:22:35.584Z,15.14
2023-05-14T20:24:38.748Z,15.06
2023-05-14T20:26:42.194Z,15.03
2023-05-14T20:28:45.713Z,15.00
2023-05-14T20:30:48.998Z,14.99
2023-05-14T20:32:52.556Z,14.93
2023-05-14T20:34:56.009Z,14.88
2023-05-14T20:37:01.403Z,14.82
2023-05-14T20:39:06.163Z,14.75
2023-05-14T20:41:09.428Z,14.67
2023-05-14T20:43:12.726Z,14.65
2023-05-14T20:45:15.837Z,14.63
2023-05-14T20:47:21.401Z,14.60
2023-05-14T20:49:24.501Z,14.58
2023-05-14T20:51:27.579Z,14.54
2023-05-14T20:53:32.091Z,14.53
2023-05-14T20:55:35.386Z,14.51
2023-05-14T20:57:38.415Z,14.48
2023-05-14T20:59:41.596Z,14.46
2023-05-14T21:01:44.676Z,14.42
2023-05-14T21:03:47.988Z,14.37
2023-05-14T21:05:52.635Z,14.30
2023-05-14T21:07:55.817Z,14.26
2023-05-14T21:10:01.895Z,14.24
2023-05-14T21:12:05.741Z,14.22
2023-05-14T21:14:08.857Z,14.19
2023-05-14T21:16:12.789Z,14.19
2023-05-14T21:18:16.033Z,14.19
2023-05-14T21:20:19.330Z,14.20
2023-05-14T21:22:23.457Z,14.18
2023-05-14T21:24:26.547Z,14.15
2023-05-14T21:26:32.617Z,14.12
2023-05-14T21:28:35.685Z,14.11
2023-05-14T21:30:38.795Z,14.14
2023-05-14T21:32:42.000Z,14.16
2023-05-14T21:34:45.144Z,14.15
2023-05-14T21:36:48.568Z,14.10
2023-05-14T21:38:53.562Z,13.95
2023-05-14T21:40:56.681Z,13.93
2023-05-14T21:43:01.519Z,13.90
2023-05-14T21:45:05.102Z,13.88
2023-05-14T21:47:08.567Z,13.85
2023-05-14T21:49:11.732Z,13.82
2023-05-14T21:51:14.922Z,13.81
2023-05-14T21:53:18.046Z,13.78
2023-05-14T21:55:21.510Z,13.77
2023-05-14T21:57:27.377Z,13.77
2023-05-14T21:59:32.718Z,13.77
2023-05-14T22:01:50.631Z,13.75
2023-05-14T22:04:00.320Z,13.73
2023-05-14T22:06:03.655Z,13.70
2023-05-14T22:08:07.278Z,13.67
2023-05-14T22:10:11.439Z,13.64
2023-05-14T22:12:14.547Z,13.59
2023-05-14T22:14:17.632Z,13.56
2023-05-14T22:16:22.857Z,13.53
2023-05-14T22:18:26.150Z,13.52
2023-05-14T22:20:29.236Z,13.55
2023-05-14T22:22:32.362Z,13.55
2023-05-14T22:24:35.524Z,13.57
2023-05-14T22:26:38.689Z,13.58
2023-05-14T22:28:43.538Z,13.57
2023-05-14T22:30:46.556Z,13.56
2023-05-14T22:32:51.081Z,13.52
2023-05-14T22:34:54.183Z,13.47
2023-05-14T22:36:57.257Z,13.41
2023-05-14T22:39:00.351Z,13.39
2023-05-14T22:41:03.389Z,13.40
2023-05-14T22:43:06.447Z,13.45
2023-05-14T22:45:10.565Z,13.47
2023-05-14T22:47:13.622Z,13.45
2023-05-14T22:49:18.133Z,13.46
2023-05-14T22:51:21.155Z,13.40
2023-05-14T22:53:25.271Z,13.34
2023-05-14T22:55:28.628Z,13.30
2023-05-14T22:57:31.762Z,13.30
2023-05-14T22:59:34.855Z,13.30
2023-05-14T23:01:37.975Z,13.31
2023-05-14T23:03:41.042Z,13.33
2023-05-14T23:05:45.457Z,13.34
2023-05-14T23:07:48.515Z,13.33
2023-05-14T23:09:51.573Z,13.35
2023-05-14T23:11:55.015Z,13.37
2023-05-14T23:13:58.035Z,13.33
2023-05-14T23:16:01.171Z,13.31
2023-05-14T23:18:04.348Z,13.31
2023-05-14T23:20:10.548Z,13.30
2023-05-14T23:22:14.975Z,13.31
2023-05-14T23:24:18.065Z,13.30
2023-05-14T23:26:21.608Z,13.28
2023-05-14T23:28:24.816Z,13.26
2023-05-14T23:30:27.836Z,13.21
2023-05-14T23:32:30.943Z,13.18
2023-05-14T23:34:34.631Z,13.17
2023-05-14T23:36:37.747Z,13.17
2023-05-14T23:38:42.291Z,13.14
2023-05-14T23:40:45.423Z,13.11
2023-05-14T23:42:48.461Z,13.08
2023-05-14T23:44:51.632Z,13.05
2023-05-14T23:46:54.917Z,13.02
2023-05-14T23:48:58.232Z,12.99
2023-05-14T23:51:01.330Z,12.97
2023-05-14T23:53:04.451Z,12.92
2023-05-14T23:55:09.780Z,12.93
2023-05-14T23:57:14.509Z,12.91
2023-05-14T23:59:17.687Z,12.91
